sensor_id;sensor_type;location;lat;lon;timestamp;pressure;altitude;pressure_sealevel;temperature
74539;BMP180;66042;51.090;-115.340;2023-04-15T00:02:23;86329.60;;;17.44
74539;BMP180;66042;51.090;-115.340;2023-04-15T00:04:50;86331.60;;;16.86
74539;BMP180;66042;51.090;-115.340;2023-04-15T00:07:21;86332.00;;;16.20
74539;BMP180;66042;51.090;-115.340;2023-04-15T00:09:48;86329.60;;;15.50
74539;BMP180;66042;51.090;-115.340;2023-04-15T00:12:15;86331.40;;;14.88
74539;BMP180;66042;51.090;-115.340;2023-04-15T00:14:42;86342.00;;;14.20
74539;BMP180;66042;51.090;-115.340;2023-04-15T00:17:10;86341.40;;;13.70
74539;BMP180;66042;51.090;-115.340;2023-04-15T00:19:37;86346.00;;;13.30
74539;BMP180;66042;51.090;-115.340;2023-04-15T00:22:05;86343.00;;;12.98
74539;BMP180;66042;51.090;-115.340;2023-04-15T00:24:33;86344.80;;;12.78
74539;BMP180;66042;51.090;-115.340;2023-04-15T00:27:00;86340.60;;;12.44
74539;BMP180;66042;51.090;-115.340;2023-04-15T00:29:27;86342.00;;;12.20
74539;BMP180;66042;51.090;-115.340;2023-04-15T00:31:54;86337.40;;;11.90
74539;BMP180;66042;51.090;-115.340;2023-04-15T00:34:23;86342.20;;;11.70
74539;BMP180;66042;51.090;-115.340;2023-04-15T00:36:50;86346.80;;;11.50
74539;BMP180;66042;51.090;-115.340;2023-04-15T00:39:18;86343.60;;;11.20
74539;BMP180;66042;51.090;-115.340;2023-04-15T00:41:46;86341.60;;;10.90
74539;BMP180;66042;51.090;-115.340;2023-04-15T00:44:12;86342.00;;;10.70
74539;BMP180;66042;51.090;-115.340;2023-04-15T00:46:40;86333.80;;;10.50
74539;BMP180;66042;51.090;-115.340;2023-04-15T00:49:09;86335.20;;;10.40
74539;BMP180;66042;51.090;-115.340;2023-04-15T00:51:36;86338.80;;;10.30
74539;BMP180;66042;51.090;-115.340;2023-04-15T00:54:07;86340.00;;;10.14
74539;BMP180;66042;51.090;-115.340;2023-04-15T00:56:36;86344.40;;;10.00
74539;BMP180;66042;51.090;-115.340;2023-04-15T00:59:07;86340.00;;;9.80
74539;BMP180;66042;51.090;-115.340;2023-04-15T01:01:36;86337.40;;;9.74
74539;BMP180;66042;51.090;-115.340;2023-04-15T01:04:04;86334.80;;;9.70
74539;BMP180;66042;51.090;-115.340;2023-04-15T01:06:32;86339.60;;;9.70
74539;BMP180;66042;51.090;-115.340;2023-04-15T01:08:59;86341.60;;;9.60
74539;BMP180;66042;51.090;-115.340;2023-04-15T01:11:27;86336.20;;;9.50
74539;BMP180;66042;51.090;-115.340;2023-04-15T01:13:55;86335.20;;;9.40
74539;BMP180;66042;51.090;-115.340;2023-04-15T01:16:25;86336.60;;;9.30
74539;BMP180;66042;51.090;-115.340;2023-04-15T01:18:54;86339.40;;;9.30
74539;BMP180;66042;51.090;-115.340;2023-04-15T01:21:23;86340.00;;;9.20
74539;BMP180;66042;51.090;-115.340;2023-04-15T01:23:52;86344.40;;;9.10
74539;BMP180;66042;51.090;-115.340;2023-04-15T01:26:22;86344.00;;;8.90
74539;BMP180;66042;51.090;-115.340;2023-04-15T01:28:49;86346.00;;;8.70
74539;BMP180;66042;51.090;-115.340;2023-04-15T01:31:17;86346.40;;;8.50
74539;BMP180;66042;51.090;-115.340;2023-04-15T01:33:45;86352.60;;;8.40
74539;BMP180;66042;51.090;-115.340;2023-04-15T01:36:12;86352.80;;;8.20
74539;BMP180;66042;51.090;-115.340;2023-04-15T01:38:39;86354.40;;;8.00
74539;BMP180;66042;51.090;-115.340;2023-04-15T01:41:07;86349.80;;;7.80
74539;BMP180;66042;51.090;-115.340;2023-04-15T01:43:36;86353.60;;;7.70
74539;BMP180;66042;51.090;-115.340;2023-04-15T01:46:03;86356.20;;;7.50
74539;BMP180;66042;51.090;-115.340;2023-04-15T01:48:31;86358.40;;;7.30
74539;BMP180;66042;51.090;-115.340;2023-04-15T01:51:02;86358.20;;;7.10
74539;BMP180;66042;51.090;-115.340;2023-04-15T01:53:29;86361.60;;;6.90
74539;BMP180;66042;51.090;-115.340;2023-04-15T01:55:56;86366.20;;;6.70
74539;BMP180;66042;51.090;-115.340;2023-04-15T01:58:23;86365.80;;;6.50
74539;BMP180;66042;51.090;-115.340;2023-04-15T02:00:50;86370.80;;;6.40
74539;BMP180;66042;51.090;-115.340;2023-04-15T02:03:18;86374.00;;;6.30
74539;BMP180;66042;51.090;-115.340;2023-04-15T02:05:44;86372.20;;;6.20
74539;BMP180;66042;51.090;-115.340;2023-04-15T02:08:12;86378.80;;;6.10
74539;BMP180;66042;51.090;-115.340;2023-04-15T02:10:39;86382.20;;;6.00
74539;BMP180;66042;51.090;-115.340;2023-04-15T02:13:06;86377.80;;;5.90
74539;BMP180;66042;51.090;-115.340;2023-04-15T02:15:33;86377.20;;;5.80
74539;BMP180;66042;51.090;-115.340;2023-04-15T02:18:00;86381.00;;;5.80
74539;BMP180;66042;51.090;-115.340;2023-04-15T02:20:27;86381.40;;;5.70
74539;BMP180;66042;51.090;-115.340;2023-04-15T02:22:56;86388.20;;;5.60
74539;BMP180;66042;51.090;-115.340;2023-04-15T02:25:23;86389.00;;;5.50
74539;BMP180;66042;51.090;-115.340;2023-04-15T02:27:51;86392.00;;;5.40
74539;BMP180;66042;51.090;-115.340;2023-04-15T02:30:19;86394.40;;;5.30
74539;BMP180;66042;51.090;-115.340;2023-04-15T02:32:46;86397.20;;;5.20
74539;BMP180;66042;51.090;-115.340;2023-04-15T02:35:13;86403.80;;;5.10
74539;BMP180;66042;51.090;-115.340;2023-04-15T02:37:41;86409.60;;;5.00
74539;BMP180;66042;51.090;-115.340;2023-04-15T02:40:11;86413.80;;;5.00
74539;BMP180;66042;51.090;-115.340;2023-04-15T02:42:40;86418.40;;;4.90
74539;BMP180;66042;51.090;-115.340;2023-04-15T02:45:08;86416.20;;;4.70
74539;BMP180;66042;51.090;-115.340;2023-04-15T02:47:35;86417.00;;;4.68
74539;BMP180;66042;51.090;-115.340;2023-04-15T02:50:09;86421.40;;;4.60
74539;BMP180;66042;51.090;-115.340;2023-04-15T02:52:41;86422.40;;;4.50
74539;BMP180;66042;51.090;-115.340;2023-04-15T02:55:10;86423.40;;;4.40
74539;BMP180;66042;51.090;-115.340;2023-04-15T02:57:38;86425.00;;;4.30
74539;BMP180;66042;51.090;-115.340;2023-04-15T03:00:07;86430.20;;;4.30
74539;BMP180;66042;51.090;-115.340;2023-04-15T03:02:38;86431.40;;;4.20
74539;BMP180;66042;51.090;-115.340;2023-04-15T03:05:10;86439.40;;;4.08
74539;BMP180;66042;51.090;-115.340;2023-04-15T03:07:38;86441.80;;;3.94
74539;BMP180;66042;51.090;-115.340;2023-04-15T03:10:08;86446.80;;;3.80
74539;BMP180;66042;51.090;-115.340;2023-04-15T03:12:36;86446.20;;;3.80
74539;BMP180;66042;51.090;-115.340;2023-04-15T03:15:03;86451.00;;;3.70
74539;BMP180;66042;51.090;-115.340;2023-04-15T03:17:31;86457.20;;;3.62
74539;BMP180;66042;51.090;-115.340;2023-04-15T03:19:58;86458.60;;;3.50
74539;BMP180;66042;51.090;-115.340;2023-04-15T03:22:25;86461.40;;;3.42
74539;BMP180;66042;51.090;-115.340;2023-04-15T03:24:52;86462.20;;;3.38
74539;BMP180;66042;51.090;-115.340;2023-04-15T03:27:19;86464.20;;;3.30
74539;BMP180;66042;51.090;-115.340;2023-04-15T03:29:46;86463.60;;;3.22
74539;BMP180;66042;51.090;-115.340;2023-04-15T03:32:13;86466.40;;;3.10
74539;BMP180;66042;51.090;-115.340;2023-04-15T03:34:44;86473.80;;;3.00
74539;BMP180;66042;51.090;-115.340;2023-04-15T03:37:11;86475.20;;;3.00
74539;BMP180;66042;51.090;-115.340;2023-04-15T03:39:38;86480.00;;;2.90
74539;BMP180;66042;51.090;-115.340;2023-04-15T03:42:05;86478.60;;;2.80
74539;BMP180;66042;51.090;-115.340;2023-04-15T03:44:32;86485.60;;;2.70
74539;BMP180;66042;51.090;-115.340;2023-04-15T03:46:59;86491.20;;;2.60
74539;BMP180;66042;51.090;-115.340;2023-04-15T03:49:26;86496.00;;;2.56
74539;BMP180;66042;51.090;-115.340;2023-04-15T03:51:54;86493.80;;;2.50
74539;BMP180;66042;51.090;-115.340;2023-04-15T03:54:21;86500.40;;;2.40
74539;BMP180;66042;51.090;-115.340;2023-04-15T03:56:48;86502.00;;;2.30
74539;BMP180;66042;51.090;-115.340;2023-04-15T03:59:15;86505.00;;;2.30
74539;BMP180;66042;51.090;-115.340;2023-04-15T04:01:42;86512.00;;;2.20
74539;BMP180;66042;51.090;-115.340;2023-04-15T04:04:09;86512.20;;;2.10
74539;BMP180;66042;51.090;-115.340;2023-04-15T04:06:38;86511.00;;;2.00
74539;BMP180;66042;51.090;-115.340;2023-04-15T04:09:05;86510.80;;;1.90
74539;BMP180;66042;51.090;-115.340;2023-04-15T04:11:32;86512.20;;;1.86
74539;BMP180;66042;51.090;-115.340;2023-04-15T04:13:59;86514.80;;;1.70
74539;BMP180;66042;51.090;-115.340;2023-04-15T04:16:26;86511.20;;;1.50
74539;BMP180;66042;51.090;-115.340;2023-04-15T04:18:54;86516.40;;;1.40
74539;BMP180;66042;51.090;-115.340;2023-04-15T04:21:21;86521.20;;;1.40
74539;BMP180;66042;51.090;-115.340;2023-04-15T04:23:49;86516.40;;;1.40
74539;BMP180;66042;51.090;-115.340;2023-04-15T04:26:17;86514.80;;;1.32
74539;BMP180;66042;51.090;-115.340;2023-04-15T04:28:43;86513.40;;;1.30
74539;BMP180;66042;51.090;-115.340;2023-04-15T04:31:11;86513.80;;;1.30
74539;BMP180;66042;51.090;-115.340;2023-04-15T04:33:39;86522.20;;;1.30
74539;BMP180;66042;51.090;-115.340;2023-04-15T04:36:06;86534.60;;;1.30
74539;BMP180;66042;51.090;-115.340;2023-04-15T04:38:33;86541.80;;;1.20
74539;BMP180;66042;51.090;-115.340;2023-04-15T04:41:00;86546.40;;;1.14
74539;BMP180;66042;51.090;-115.340;2023-04-15T04:43:27;86545.20;;;1.10
74539;BMP180;66042;51.090;-115.340;2023-04-15T04:45:54;86546.20;;;1.10
74539;BMP180;66042;51.090;-115.340;2023-04-15T04:48:22;86554.60;;;1.10
74539;BMP180;66042;51.090;-115.340;2023-04-15T04:50:48;86562.80;;;1.10
74539;BMP180;66042;51.090;-115.340;2023-04-15T04:53:16;86569.80;;;1.10
74539;BMP180;66042;51.090;-115.340;2023-04-15T04:55:44;86580.60;;;1.10
74539;BMP180;66042;51.090;-115.340;2023-04-15T04:58:11;86584.60;;;1.00
74539;BMP180;66042;51.090;-115.340;2023-04-15T05:00:40;86584.40;;;1.00
74539;BMP180;66042;51.090;-115.340;2023-04-15T05:03:07;86585.80;;;1.00
74539;BMP180;66042;51.090;-115.340;2023-04-15T05:05:35;86588.80;;;1.00
74539;BMP180;66042;51.090;-115.340;2023-04-15T05:08:05;86595.00;;;1.00
74539;BMP180;66042;51.090;-115.340;2023-04-15T05:10:32;86595.00;;;1.04
74539;BMP180;66042;51.090;-115.340;2023-04-15T05:13:00;86593.80;;;1.00
74539;BMP180;66042;51.090;-115.340;2023-04-15T05:15:27;86588.20;;;1.00
74539;BMP180;66042;51.090;-115.340;2023-04-15T05:17:54;86587.20;;;1.00
74539;BMP180;66042;51.090;-115.340;2023-04-15T05:20:21;86589.20;;;0.98
74539;BMP180;66042;51.090;-115.340;2023-04-15T05:22:49;86588.00;;;1.00
74539;BMP180;66042;51.090;-115.340;2023-04-15T05:25:16;86587.80;;;1.00
74539;BMP180;66042;51.090;-115.340;2023-04-15T05:27:43;86583.80;;;0.98
74539;BMP180;66042;51.090;-115.340;2023-04-15T05:30:10;86584.60;;;0.90
74539;BMP180;66042;51.090;-115.340;2023-04-15T05:32:37;86585.40;;;0.86
74539;BMP180;66042;51.090;-115.340;2023-04-15T05:35:05;86583.80;;;0.86
74539;BMP180;66042;51.090;-115.340;2023-04-15T05:37:33;86585.80;;;0.80
74539;BMP180;66042;51.090;-115.340;2023-04-15T05:40:00;86592.60;;;0.74
74539;BMP180;66042;51.090;-115.340;2023-04-15T05:42:27;86593.60;;;0.74
74539;BMP180;66042;51.090;-115.340;2023-04-15T05:44:57;86592.60;;;0.70
74539;BMP180;66042;51.090;-115.340;2023-04-15T05:47:24;86600.80;;;0.70
74539;BMP180;66042;51.090;-115.340;2023-04-15T05:49:57;86599.20;;;0.70
74539;BMP180;66042;51.090;-115.340;2023-04-15T05:52:25;86593.40;;;0.60
74539;BMP180;66042;51.090;-115.340;2023-04-15T05:54:52;86592.00;;;0.60
74539;BMP180;66042;51.090;-115.340;2023-04-15T05:57:20;86587.00;;;0.60
74539;BMP180;66042;51.090;-115.340;2023-04-15T05:59:50;86587.20;;;0.50
74539;BMP180;66042;51.090;-115.340;2023-04-15T06:02:21;86585.60;;;0.50
74539;BMP180;66042;51.090;-115.340;2023-04-15T06:04:48;86588.60;;;0.40
74539;BMP180;66042;51.090;-115.340;2023-04-15T06:07:15;86592.40;;;0.36
74539;BMP180;66042;51.090;-115.340;2023-04-15T06:09:42;86591.40;;;0.30
74539;BMP180;66042;51.090;-115.340;2023-04-15T06:12:10;86587.00;;;0.30
74539;BMP180;66042;51.090;-115.340;2023-04-15T06:14:38;86585.60;;;0.18
74539;BMP180;66042;51.090;-115.340;2023-04-15T06:17:06;86584.80;;;0.00
74539;BMP180;66042;51.090;-115.340;2023-04-15T06:19:34;86592.60;;;-0.10
74539;BMP180;66042;51.090;-115.340;2023-04-15T06:22:04;86589.60;;;0.00
74539;BMP180;66042;51.090;-115.340;2023-04-15T06:24:32;86588.60;;;-0.10
74539;BMP180;66042;51.090;-115.340;2023-04-15T06:26:59;86593.60;;;-0.10
74539;BMP180;66042;51.090;-115.340;2023-04-15T06:29:27;86593.00;;;-0.10
74539;BMP180;66042;51.090;-115.340;2023-04-15T06:31:54;86588.60;;;-0.10
74539;BMP180;66042;51.090;-115.340;2023-04-15T06:34:22;86590.00;;;-0.20
74539;BMP180;66042;51.090;-115.340;2023-04-15T06:36:49;86590.20;;;-0.20
74539;BMP180;66042;51.090;-115.340;2023-04-15T06:39:16;86586.20;;;-0.20
74539;BMP180;66042;51.090;-115.340;2023-04-15T06:41:43;86591.60;;;-0.26
74539;BMP180;66042;51.090;-115.340;2023-04-15T06:44:10;86591.80;;;-0.28
74539;BMP180;66042;51.090;-115.340;2023-04-15T06:46:37;86589.40;;;-0.30
74539;BMP180;66042;51.090;-115.340;2023-04-15T06:49:05;86595.00;;;-0.30
74539;BMP180;66042;51.090;-115.340;2023-04-15T06:51:33;86598.80;;;-0.30
74539;BMP180;66042;51.090;-115.340;2023-04-15T06:54:00;86606.40;;;-0.30
74539;BMP180;66042;51.090;-115.340;2023-04-15T06:56:27;86606.00;;;-0.30
74539;BMP180;66042;51.090;-115.340;2023-04-15T06:58:54;86611.60;;;-0.32
74539;BMP180;66042;51.090;-115.340;2023-04-15T07:01:21;86614.20;;;-0.40
74539;BMP180;66042;51.090;-115.340;2023-04-15T07:03:48;86619.20;;;-0.40
74539;BMP180;66042;51.090;-115.340;2023-04-15T07:06:16;86619.40;;;-0.40
74539;BMP180;66042;51.090;-115.340;2023-04-15T07:08:43;86623.20;;;-0.50
74539;BMP180;66042;51.090;-115.340;2023-04-15T07:11:10;86620.40;;;-0.50
74539;BMP180;66042;51.090;-115.340;2023-04-15T07:13:38;86620.00;;;-0.50
74539;BMP180;66042;51.090;-115.340;2023-04-15T07:16:05;86621.60;;;-0.54
74539;BMP180;66042;51.090;-115.340;2023-04-15T07:18:32;86625.20;;;-0.60
74539;BMP180;66042;51.090;-115.340;2023-04-15T07:21:02;86624.80;;;-0.70
74539;BMP180;66042;51.090;-115.340;2023-04-15T07:23:29;86620.00;;;-0.70
74539;BMP180;66042;51.090;-115.340;2023-04-15T07:25:57;86622.00;;;-0.70
74539;BMP180;66042;51.090;-115.340;2023-04-15T07:28:24;86620.20;;;-0.70
74539;BMP180;66042;51.090;-115.340;2023-04-15T07:30:51;86615.80;;;-0.72
74539;BMP180;66042;51.090;-115.340;2023-04-15T07:33:18;86618.60;;;-0.80
74539;BMP180;66042;51.090;-115.340;2023-04-15T07:35:46;86620.40;;;-0.80
74539;BMP180;66042;51.090;-115.340;2023-04-15T07:38:13;86625.80;;;-0.86
74539;BMP180;66042;51.090;-115.340;2023-04-15T07:40:42;86628.80;;;-0.90
74539;BMP180;66042;51.090;-115.340;2023-04-15T07:43:09;86628.00;;;-0.90
74539;BMP180;66042;51.090;-115.340;2023-04-15T07:45:36;86632.60;;;-0.90
74539;BMP180;66042;51.090;-115.340;2023-04-15T07:48:03;86638.80;;;-0.90
74539;BMP180;66042;51.090;-115.340;2023-04-15T07:50:30;86637.20;;;-0.92
74539;BMP180;66042;51.090;-115.340;2023-04-15T07:52:58;86635.80;;;-1.00
74539;BMP180;66042;51.090;-115.340;2023-04-15T07:55:25;86636.40;;;-1.00
74539;BMP180;66042;51.090;-115.340;2023-04-15T07:57:52;86637.40;;;-1.00
74539;BMP180;66042;51.090;-115.340;2023-04-15T08:00:19;86637.80;;;-1.10
74539;BMP180;66042;51.090;-115.340;2023-04-15T08:02:46;86630.20;;;-1.10
74539;BMP180;66042;51.090;-115.340;2023-04-15T08:05:14;86634.40;;;-1.10
74539;BMP180;66042;51.090;-115.340;2023-04-15T08:07:41;86640.20;;;-1.10
74539;BMP180;66042;51.090;-115.340;2023-04-15T08:10:08;86641.40;;;-1.20
74539;BMP180;66042;51.090;-115.340;2023-04-15T08:12:35;86638.00;;;-1.30
74539;BMP180;66042;51.090;-115.340;2023-04-15T08:15:03;86640.20;;;-1.20
74539;BMP180;66042;51.090;-115.340;2023-04-15T08:17:30;86640.00;;;-1.28
74539;BMP180;66042;51.090;-115.340;2023-04-15T08:19:57;86643.20;;;-1.26
74539;BMP180;66042;51.090;-115.340;2023-04-15T08:22:25;86643.80;;;-1.22
74539;BMP180;66042;51.090;-115.340;2023-04-15T08:24:51;86645.80;;;-1.20
74539;BMP180;66042;51.090;-115.340;2023-04-15T08:27:19;86639.40;;;-1.26
74539;BMP180;66042;51.090;-115.340;2023-04-15T08:29:46;86637.60;;;-1.30
74539;BMP180;66042;51.090;-115.340;2023-04-15T08:32:13;86640.40;;;-1.30
74539;BMP180;66042;51.090;-115.340;2023-04-15T08:34:40;86646.80;;;-1.20
74539;BMP180;66042;51.090;-115.340;2023-04-15T08:37:07;86646.20;;;-1.20
74539;BMP180;66042;51.090;-115.340;2023-04-15T08:39:37;86642.80;;;-1.12
74539;BMP180;66042;51.090;-115.340;2023-04-15T08:42:11;86644.40;;;-1.10
74539;BMP180;66042;51.090;-115.340;2023-04-15T08:44:43;86645.00;;;-1.10
74539;BMP180;66042;51.090;-115.340;2023-04-15T08:47:13;86649.60;;;-1.10
74539;BMP180;66042;51.090;-115.340;2023-04-15T08:49:43;86647.60;;;-1.00
74539;BMP180;66042;51.090;-115.340;2023-04-15T08:52:10;86652.00;;;-1.00
74539;BMP180;66042;51.090;-115.340;2023-04-15T08:54:38;86650.20;;;-1.00
74539;BMP180;66042;51.090;-115.340;2023-04-15T08:57:05;86646.80;;;-0.92
74539;BMP180;66042;51.090;-115.340;2023-04-15T08:59:33;86652.60;;;-0.90
74539;BMP180;66042;51.090;-115.340;2023-04-15T09:02:03;86650.20;;;-0.90
74539;BMP180;66042;51.090;-115.340;2023-04-15T09:04:30;86648.60;;;-0.90
74539;BMP180;66042;51.090;-115.340;2023-04-15T09:06:59;86647.00;;;-1.00
74539;BMP180;66042;51.090;-115.340;2023-04-15T09:09:29;86646.00;;;-1.00
74539;BMP180;66042;51.090;-115.340;2023-04-15T09:11:56;86643.40;;;-1.00
74539;BMP180;66042;51.090;-115.340;2023-04-15T09:14:24;86647.60;;;-1.00
74539;BMP180;66042;51.090;-115.340;2023-04-15T09:17:02;86653.00;;;-1.08
74539;BMP180;66042;51.090;-115.340;2023-04-15T09:19:31;86654.60;;;-1.10
74539;BMP180;66042;51.090;-115.340;2023-04-15T09:22:01;86658.40;;;-1.08
74539;BMP180;66042;51.090;-115.340;2023-04-15T09:24:39;86655.40;;;-1.10
74539;BMP180;66042;51.090;-115.340;2023-04-15T09:27:07;86656.80;;;-1.10
74539;BMP180;66042;51.090;-115.340;2023-04-15T09:29:39;86657.60;;;-1.10
74539;BMP180;66042;51.090;-115.340;2023-04-15T09:32:15;86663.60;;;-1.10
74539;BMP180;66042;51.090;-115.340;2023-04-15T09:34:42;86661.60;;;-1.10
74539;BMP180;66042;51.090;-115.340;2023-04-15T09:37:10;86658.20;;;-1.10
74539;BMP180;66042;51.090;-115.340;2023-04-15T09:39:58;86658.40;;;-1.10
74539;BMP180;66042;51.090;-115.340;2023-04-15T09:42:26;86659.80;;;-1.10
74539;BMP180;66042;51.090;-115.340;2023-04-15T09:44:54;86660.20;;;-1.10
74539;BMP180;66042;51.090;-115.340;2023-04-15T09:47:29;86662.60;;;-1.10
74539;BMP180;66042;51.090;-115.340;2023-04-15T09:50:00;86661.80;;;-1.10
74539;BMP180;66042;51.090;-115.340;2023-04-15T09:52:28;86658.60;;;-1.10
74539;BMP180;66042;51.090;-115.340;2023-04-15T09:54:58;86655.00;;;-1.10
74539;BMP180;66042;51.090;-115.340;2023-04-15T09:57:36;86655.00;;;-1.10
74539;BMP180;66042;51.090;-115.340;2023-04-15T10:00:08;86650.60;;;-1.14
74539;BMP180;66042;51.090;-115.340;2023-04-15T10:02:47;86657.80;;;-1.20
74539;BMP180;66042;51.090;-115.340;2023-04-15T10:05:15;86659.40;;;-1.20
74539;BMP180;66042;51.090;-115.340;2023-04-15T10:07:44;86657.00;;;-1.26
74539;BMP180;66042;51.090;-115.340;2023-04-15T10:10:12;86656.40;;;-1.30
74539;BMP180;66042;51.090;-115.340;2023-04-15T10:12:41;86662.00;;;-1.40
74539;BMP180;66042;51.090;-115.340;2023-04-15T10:15:15;86663.40;;;-1.42
74539;BMP180;66042;51.090;-115.340;2023-04-15T10:17:44;86664.60;;;-1.50
74539;BMP180;66042;51.090;-115.340;2023-04-15T10:20:14;86665.20;;;-1.50
74539;BMP180;66042;51.090;-115.340;2023-04-15T10:22:45;86658.60;;;-1.50
74539;BMP180;66042;51.090;-115.340;2023-04-15T10:25:15;86668.40;;;-1.60
74539;BMP180;66042;51.090;-115.340;2023-04-15T10:27:42;86663.20;;;-1.70
74539;BMP180;66042;51.090;-115.340;2023-04-15T10:30:09;86664.00;;;-1.74
74539;BMP180;66042;51.090;-115.340;2023-04-15T10:32:37;86662.80;;;-1.80
74539;BMP180;66042;51.090;-115.340;2023-04-15T10:35:05;86666.60;;;-1.90
74539;BMP180;66042;51.090;-115.340;2023-04-15T10:37:37;86661.20;;;-1.90
74539;BMP180;66042;51.090;-115.340;2023-04-15T10:40:25;86664.60;;;-1.90
74539;BMP180;66042;51.090;-115.340;2023-04-15T10:42:59;86677.40;;;-1.96
74539;BMP180;66042;51.090;-115.340;2023-04-15T10:45:33;86673.00;;;-2.00
74539;BMP180;66042;51.090;-115.340;2023-04-15T10:48:06;86668.00;;;-2.00
74539;BMP180;66042;51.090;-115.340;2023-04-15T10:50:34;86678.00;;;-2.06
74539;BMP180;66042;51.090;-115.340;2023-04-15T10:53:03;86678.00;;;-2.10
74539;BMP180;66042;51.090;-115.340;2023-04-15T10:55:33;86671.80;;;-2.20
74539;BMP180;66042;51.090;-115.340;2023-04-15T10:58:01;86678.00;;;-2.20
74539;BMP180;66042;51.090;-115.340;2023-04-15T11:00:31;86681.60;;;-2.20
74539;BMP180;66042;51.090;-115.340;2023-04-15T11:08:10;86690.00;;;-2.30
74539;BMP180;66042;51.090;-115.340;2023-04-15T11:13:17;86700.80;;;-2.30
74539;BMP180;66042;51.090;-115.340;2023-04-15T11:15:45;86692.80;;;-2.40
74539;BMP180;66042;51.090;-115.340;2023-04-15T11:18:26;86698.20;;;-2.40
74539;BMP180;66042;51.090;-115.340;2023-04-15T11:21:05;86698.80;;;-2.44
74539;BMP180;66042;51.090;-115.340;2023-04-15T11:23:42;86697.40;;;-2.40
74539;BMP180;66042;51.090;-115.340;2023-04-15T11:26:12;86700.40;;;-2.50
74539;BMP180;66042;51.090;-115.340;2023-04-15T11:28:43;86708.60;;;-2.50
74539;BMP180;66042;51.090;-115.340;2023-04-15T11:31:18;86699.80;;;-2.50
74539;BMP180;66042;51.090;-115.340;2023-04-15T11:33:57;86704.60;;;-2.50
74539;BMP180;66042;51.090;-115.340;2023-04-15T11:36:29;86718.80;;;-2.50
74539;BMP180;66042;51.090;-115.340;2023-04-15T11:38:59;86718.40;;;-2.54
74539;BMP180;66042;51.090;-115.340;2023-04-15T11:41:26;86711.80;;;-2.58
74539;BMP180;66042;51.090;-115.340;2023-04-15T11:43:53;86718.20;;;-2.60
74539;BMP180;66042;51.090;-115.340;2023-04-15T11:46:30;86719.60;;;-2.60
74539;BMP180;66042;51.090;-115.340;2023-04-15T11:48:58;86719.80;;;-2.60
74539;BMP180;66042;51.090;-115.340;2023-04-15T11:51:25;86713.80;;;-2.60
74539;BMP180;66042;51.090;-115.340;2023-04-15T11:53:52;86713.00;;;-2.58
74539;BMP180;66042;51.090;-115.340;2023-04-15T11:56:23;86712.40;;;-2.60
74539;BMP180;66042;51.090;-115.340;2023-04-15T11:58:57;86715.20;;;-2.60
74539;BMP180;66042;51.090;-115.340;2023-04-15T12:01:35;86716.60;;;-2.60
74539;BMP180;66042;51.090;-115.340;2023-04-15T12:04:13;86728.80;;;-2.50
74539;BMP180;66042;51.090;-115.340;2023-04-15T12:06:40;86732.20;;;-2.50
74539;BMP180;66042;51.090;-115.340;2023-04-15T12:09:11;86723.40;;;-2.52
74539;BMP180;66042;51.090;-115.340;2023-04-15T12:11:49;86725.00;;;-2.60
74539;BMP180;66042;51.090;-115.340;2023-04-15T12:14:31;86726.20;;;-2.60
74539;BMP180;66042;51.090;-115.340;2023-04-15T12:17:01;86728.80;;;-2.60
74539;BMP180;66042;51.090;-115.340;2023-04-15T12:19:40;86736.60;;;-2.58
74539;BMP180;66042;51.090;-115.340;2023-04-15T12:22:12;86731.80;;;-2.50
74539;BMP180;66042;51.090;-115.340;2023-04-15T12:24:42;86734.60;;;-2.50
74539;BMP180;66042;51.090;-115.340;2023-04-15T12:27:16;86734.80;;;-2.50
74539;BMP180;66042;51.090;-115.340;2023-04-15T12:29:43;86735.60;;;-2.50
74539;BMP180;66042;51.090;-115.340;2023-04-15T12:32:12;86736.80;;;-2.50
74539;BMP180;66042;51.090;-115.340;2023-04-15T12:34:43;86738.60;;;-2.50
74539;BMP180;66042;51.090;-115.340;2023-04-15T12:37:12;86742.20;;;-2.50
74539;BMP180;66042;51.090;-115.340;2023-04-15T12:39:42;86749.00;;;-2.50
74539;BMP180;66042;51.090;-115.340;2023-04-15T12:42:10;86747.40;;;-2.50
74539;BMP180;66042;51.090;-115.340;2023-04-15T12:44:38;86735.80;;;-2.50
74539;BMP180;66042;51.090;-115.340;2023-04-15T12:47:08;86739.20;;;-2.50
74539;BMP180;66042;51.090;-115.340;2023-04-15T12:49:35;86736.60;;;-2.50
74539;BMP180;66042;51.090;-115.340;2023-04-15T12:52:04;86735.80;;;-2.50
74539;BMP180;66042;51.090;-115.340;2023-04-15T12:54:31;86735.60;;;-2.50
74539;BMP180;66042;51.090;-115.340;2023-04-15T12:56:59;86739.40;;;-2.50
74539;BMP180;66042;51.090;-115.340;2023-04-15T12:59:26;86742.00;;;-2.50
74539;BMP180;66042;51.090;-115.340;2023-04-15T13:01:54;86737.80;;;-2.40
74539;BMP180;66042;51.090;-115.340;2023-04-15T13:04:21;86736.60;;;-2.40
74539;BMP180;66042;51.090;-115.340;2023-04-15T13:06:49;86742.80;;;-2.40
74539;BMP180;66042;51.090;-115.340;2023-04-15T13:09:16;86746.40;;;-2.40
74539;BMP180;66042;51.090;-115.340;2023-04-15T13:11:43;86746.00;;;-2.40
74539;BMP180;66042;51.090;-115.340;2023-04-15T13:14:10;86739.20;;;-2.34
74539;BMP180;66042;51.090;-115.340;2023-04-15T13:16:38;86740.60;;;-2.30
74539;BMP180;66042;51.090;-115.340;2023-04-15T13:19:05;86734.60;;;-2.30
74539;BMP180;66042;51.090;-115.340;2023-04-15T13:21:33;86740.20;;;-2.30
74539;BMP180;66042;51.090;-115.340;2023-04-15T13:24:00;86749.40;;;-2.22
74539;BMP180;66042;51.090;-115.340;2023-04-15T13:26:28;86742.60;;;-2.22
74539;BMP180;66042;51.090;-115.340;2023-04-15T13:28:55;86746.80;;;-2.20
74539;BMP180;66042;51.090;-115.340;2023-04-15T13:31:22;86733.60;;;-2.20
74539;BMP180;66042;51.090;-115.340;2023-04-15T13:33:49;86740.60;;;-2.20
74539;BMP180;66042;51.090;-115.340;2023-04-15T13:36:16;86746.00;;;-2.20
74539;BMP180;66042;51.090;-115.340;2023-04-15T13:38:43;86737.80;;;-2.20
74539;BMP180;66042;51.090;-115.340;2023-04-15T13:41:10;86738.00;;;-2.20
74539;BMP180;66042;51.090;-115.340;2023-04-15T13:43:38;86745.20;;;-2.20
74539;BMP180;66042;51.090;-115.340;2023-04-15T13:46:05;86743.60;;;-2.18
74539;BMP180;66042;51.090;-115.340;2023-04-15T13:48:33;86742.60;;;-2.12
74539;BMP180;66042;51.090;-115.340;2023-04-15T13:51:00;86740.40;;;-2.10
74539;BMP180;66042;51.090;-115.340;2023-04-15T13:53:28;86747.60;;;-2.10